Time;durP1;ratioP1;P1;durP2;ratioP2;P2;SDS_P1;SDS_P2;PMS_P1;PMS_P2;Temp;Humidity;BMP_temperature;BMP_pressure;BME280_temperature;BME280_humidity;BME280_pressure;Samples;Min_cycle;Max_cycle;Signal;HPM_P1;HPM_P2
2021/09/22 00:00:21;;;;;;;28.10;15.47;;;9.40;99.90;;;;;;4875763;29;20289;-66
2021/09/22 00:02:49;;;;;;;25.63;15.67;;;9.40;99.90;;;;;;4878740;29;20191;-66
2021/09/22 00:05:19;;;;;;;26.17;16.77;;;9.40;99.90;;;;;;4878367;29;20230;-66
2021/09/22 00:07:47;;;;;;;27.50;16.47;;;9.30;99.90;;;;;;4876396;29;20373;-66
2021/09/22 00:10:19;;;;;;;23.87;15.97;;;9.30;99.90;;;;;;4881019;29;20231;-66
2021/09/22 00:12:48;;;;;;;26.33;16.50;;;9.30;99.90;;;;;;4878143;29;20317;-66
2021/09/22 00:15:19;;;;;;;28.53;16.70;;;9.30;99.90;;;;;;4877916;29;20203;-66
2021/09/22 00:17:48;;;;;;;29.40;16.27;;;9.20;99.90;;;;;;4861160;29;20191;-66
2021/09/22 00:20:22;;;;;;;26.77;15.47;;;9.20;99.90;;;;;;4876706;29;20233;-65
2021/09/22 00:23:03;;;;;;;29.07;16.87;;;9.20;99.90;;;;;;4884199;29;20544;-66
2021/09/22 00:25:37;;;;;;;29.57;17.40;;;9.20;99.90;;;;;;4881413;29;20203;-66
2021/09/22 00:28:07;;;;;;;29.90;17.63;;;9.20;99.90;;;;;;4867756;29;20206;-66
2021/09/22 00:30:35;;;;;;;25.70;15.27;;;9.20;99.90;;;;;;4877227;29;20293;-66
2021/09/22 00:33:05;;;;;;;28.67;15.77;;;9.20;99.90;;;;;;4874938;29;20223;-66
2021/09/22 00:35:34;;;;;;;25.47;16.10;;;9.10;99.90;;;;;;4875749;29;20211;-66
2021/09/22 00:38:03;;;;;;;27.60;16.10;;;9.10;99.90;;;;;;4858949;29;20298;-65
2021/09/22 00:40:31;;;;;;;23.07;15.00;;;9.10;99.90;;;;;;4884343;29;20198;-66
2021/09/22 00:43:01;;;;;;;23.73;15.20;;;9.10;99.90;;;;;;4877351;29;20207;-65
2021/09/22 00:45:30;;;;;;;32.20;14.83;;;9.20;99.90;;;;;;4876205;29;20207;-65
2021/09/22 00:48:01;;;;;;;24.87;15.07;;;9.20;99.90;;;;;;4878247;29;20197;-65
2021/09/22 00:50:29;;;;;;;23.10;15.43;;;9.10;99.90;;;;;;4868660;29;20230;-66
2021/09/22 00:52:57;;;;;;;25.33;15.70;;;9.10;99.90;;;;;;4877216;29;20254;-66
2021/09/22 00:55:26;;;;;;;22.10;14.73;;;9.10;99.90;;;;;;4861031;29;21024;-66
2021/09/22 00:57:56;;;;;;;23.77;14.77;;;9.10;99.90;;;;;;4865327;29;20238;-66
2021/09/22 01:00:28;;;;;;;23.97;14.83;;;9.00;99.90;;;;;;4875089;29;20255;-65
2021/09/22 01:02:57;;;;;;;25.33;15.03;;;9.10;99.90;;;;;;4874469;29;20210;-66
2021/09/22 01:05:28;;;;;;;25.30;15.07;;;9.10;99.90;;;;;;4881253;29;20217;-66
2021/09/22 01:07:56;;;;;;;25.70;15.03;;;9.10;99.90;;;;;;4877738;29;20203;-66
2021/09/22 01:10:25;;;;;;;22.93;15.40;;;9.10;99.90;;;;;;4880963;29;20282;-66
2021/09/22 01:12:54;;;;;;;23.93;15.37;;;9.10;99.90;;;;;;4874108;29;20218;-66
2021/09/22 01:15:32;;;;;;;21.97;15.30;;;9.10;99.90;;;;;;4858647;29;20198;-66
2021/09/22 01:18:01;;;;;;;23.53;14.60;;;9.10;99.90;;;;;;4862813;29;20238;-66
2021/09/22 01:20:32;;;;;;;25.70;15.90;;;9.10;99.90;;;;;;4862250;29;20302;-66
2021/09/22 01:23:05;;;;;;;23.40;15.40;;;9.00;99.90;;;;;;4859337;29;20191;-65
2021/09/22 01:25:39;;;;;;;23.63;15.80;;;9.00;99.90;;;;;;4860668;29;20230;-66
2021/09/22 01:28:07;;;;;;;23.50;14.53;;;9.00;99.90;;;;;;4876942;29;20662;-66
2021/09/22 01:30:36;;;;;;;25.13;16.23;;;8.90;99.90;;;;;;4876736;29;20226;-66
2021/09/22 01:33:07;;;;;;;22.27;15.13;;;8.90;99.90;;;;;;4877041;29;20334;-65
2021/09/22 01:35:37;;;;;;;24.03;15.03;;;8.90;99.90;;;;;;4865240;29;20194;-66
2021/09/22 01:38:09;;;;;;;22.33;14.33;;;8.90;99.90;;;;;;4864846;29;20293;-66
2021/09/22 01:40:38;;;;;;;25.60;14.40;;;8.80;99.90;;;;;;4880232;29;20226;-66
2021/09/22 01:43:07;;;;;;;21.67;14.63;;;8.80;99.90;;;;;;4863200;29;20226;-65
2021/09/22 01:45:36;;;;;;;23.97;14.83;;;8.80;99.90;;;;;;4876437;29;20263;-66
2021/09/22 01:48:07;;;;;;;19.37;13.27;;;8.70;99.90;;;;;;4855926;29;20205;-65
2021/09/22 01:50:36;;;;;;;23.30;13.90;;;8.70;99.90;;;;;;4868458;29;20202;-66
2021/09/22 01:53:04;;;;;;;19.97;13.67;;;8.70;99.90;;;;;;4875511;29;20249;-66
2021/09/22 01:55:34;;;;;;;19.93;13.60;;;8.70;99.90;;;;;;4875434;29;20203;-66
2021/09/22 01:58:02;;;;;;;21.43;13.80;;;8.60;99.90;;;;;;4878165;29;20226;-66
2021/09/22 02:00:31;;;;;;;21.87;14.07;;;8.60;99.90;;;;;;4876206;29;20235;-66
2021/09/22 02:02:59;;;;;;;22.10;14.97;;;8.60;99.90;;;;;;4864538;29;20678;-66
2021/09/22 02:05:28;;;;;;;26.07;14.50;;;8.60;99.90;;;;;;4877907;29;20697;-66
2021/09/22 02:07:57;;;;;;;22.43;14.30;;;8.50;99.90;;;;;;4871603;29;20255;-66
2021/09/22 02:10:25;;;;;;;22.63;13.83;;;8.50;99.90;;;;;;4881778;29;20230;-64
2021/09/22 02:12:55;;;;;;;25.07;15.80;;;8.40;99.90;;;;;;4888124;29;20219;-66
2021/09/22 02:15:27;;;;;;;28.07;15.43;;;8.50;99.90;;;;;;4857082;29;20663;-66
2021/09/22 02:17:55;;;;;;;26.57;15.30;;;8.50;99.90;;;;;;4879910;29;20207;-66
2021/09/22 02:20:24;;;;;;;24.97;16.07;;;8.50;99.90;;;;;;4883415;29;20673;-66
2021/09/22 02:22:53;;;;;;;24.97;14.77;;;8.40;99.90;;;;;;4877143;29;20827;-66
2021/09/22 02:25:21;;;;;;;26.50;14.53;;;8.40;99.90;;;;;;4875228;29;20213;-66
2021/09/22 02:27:50;;;;;;;24.03;14.33;;;8.40;99.90;;;;;;4877501;29;20222;-66
2021/09/22 02:30:23;;;;;;;21.97;14.23;;;8.40;99.90;;;;;;4877350;29;20187;-66
2021/09/22 02:32:52;;;;;;;24.33;15.33;;;8.30;99.90;;;;;;4878009;29;20202;-66
2021/09/22 02:35:22;;;;;;;29.13;15.73;;;8.30;99.90;;;;;;4877158;29;20234;-66
2021/09/22 02:37:50;;;;;;;25.10;16.07;;;8.30;99.90;;;;;;4881087;29;20286;-66
2021/09/22 02:40:20;;;;;;;25.30;15.87;;;8.30;99.90;;;;;;4869339;29;20214;-66
2021/09/22 02:42:48;;;;;;;26.70;16.83;;;8.20;99.90;;;;;;4877921;29;20646;-66
2021/09/22 02:45:18;;;;;;;26.63;15.70;;;8.20;99.90;;;;;;4857096;29;20237;-64
2021/09/22 02:47:47;;;;;;;25.37;16.07;;;8.20;99.90;;;;;;4877370;29;20211;-64
2021/09/22 02:50:17;;;;;;;26.13;15.87;;;8.20;99.90;;;;;;4872348;29;20735;-65
2021/09/22 02:52:46;;;;;;;26.40;16.20;;;8.20;99.90;;;;;;4871733;29;20203;-64
2021/09/22 02:55:15;;;;;;;22.80;15.83;;;8.20;99.90;;;;;;4857277;29;20255;-65
2021/09/22 02:57:43;;;;;;;27.40;16.90;;;8.20;99.90;;;;;;4878406;29;20263;-65
2021/09/22 03:00:14;;;;;;;28.30;16.93;;;8.20;99.90;;;;;;4859167;29;20233;-65
2021/09/22 03:02:44;;;;;;;26.13;17.03;;;8.10;99.90;;;;;;4873562;29;20235;-64
2021/09/22 03:05:13;;;;;;;25.17;15.47;;;8.10;99.90;;;;;;4878610;29;20197;-64
2021/09/22 03:07:45;;;;;;;24.57;15.80;;;7.90;99.90;;;;;;4848038;29;20211;-65
2021/09/22 03:10:14;;;;;;;28.17;17.00;;;7.90;99.90;;;;;;4857181;29;20230;-64
2021/09/22 03:12:42;;;;;;;26.70;16.30;;;7.90;99.90;;;;;;4872075;29;20255;-64
2021/09/22 03:15:11;;;;;;;26.87;16.73;;;7.90;99.90;;;;;;4853314;29;20460;-64
2021/09/22 03:17:39;;;;;;;28.87;17.40;;;8.00;99.90;;;;;;4873285;29;20322;-65
2021/09/22 03:20:10;;;;;;;21.00;14.50;;;7.90;99.90;;;;;;4876794;29;20234;-64
2021/09/22 03:22:39;;;;;;;29.40;15.30;;;7.90;99.90;;;;;;4871100;29;20558;-64
2021/09/22 03:25:09;;;;;;;27.60;16.83;;;8.00;99.90;;;;;;4881398;29;20551;-64
2021/09/22 03:27:38;;;;;;;26.00;16.03;;;7.90;99.90;;;;;;4857620;29;20199;-64
2021/09/22 03:30:09;;;;;;;27.03;16.03;;;7.90;99.90;;;;;;4870433;29;20272;-65
2021/09/22 03:32:37;;;;;;;25.13;15.13;;;7.80;99.90;;;;;;4875531;29;20206;-65
2021/09/22 03:35:06;;;;;;;24.57;14.83;;;7.90;99.90;;;;;;4873775;29;20723;-65
2021/09/22 03:37:36;;;;;;;25.17;15.87;;;7.80;99.90;;;;;;4872168;29;20360;-65
2021/09/22 03:40:06;;;;;;;29.63;16.20;;;7.80;99.90;;;;;;4871047;29;20618;-65
2021/09/22 03:42:35;;;;;;;25.07;15.97;;;7.80;99.90;;;;;;4874664;29;20235;-65
2021/09/22 03:45:03;;;;;;;31.20;17.60;;;7.80;99.90;;;;;;4870573;29;20299;-65
2021/09/22 03:47:33;;;;;;;25.57;16.03;;;7.70;99.90;;;;;;4872176;29;20210;-65
2021/09/22 03:50:01;;;;;;;25.30;16.00;;;7.70;99.90;;;;;;4872657;29;20285;-64
2021/09/22 03:52:30;;;;;;;27.87;16.43;;;7.70;99.90;;;;;;4869523;29;20245;-65
2021/09/22 03:55:00;;;;;;;25.07;14.80;;;7.70;99.90;;;;;;4873207;29;20302;-65
2021/09/22 03:57:28;;;;;;;30.47;15.63;;;7.70;99.90;;;;;;4872268;29;20195;-65
2021/09/22 03:59:56;;;;;;;26.57;14.97;;;7.70;99.90;;;;;;4874568;29;20231;-65
2021/09/22 04:02:25;;;;;;;29.07;16.23;;;7.70;99.90;;;;;;4869200;29;20202;-65
2021/09/22 04:04:54;;;;;;;24.87;15.43;;;7.70;99.90;;;;;;4857019;29;20206;-65
2021/09/22 04:07:22;;;;;;;26.77;15.37;;;7.70;99.90;;;;;;4858611;29;20247;-65
2021/09/22 04:09:51;;;;;;;27.07;15.33;;;7.60;99.90;;;;;;4877688;29;20199;-65
2021/09/22 04:12:20;;;;;;;24.17;15.57;;;7.60;99.90;;;;;;4874719;29;20645;-65
2021/09/22 04:14:49;;;;;;;24.23;15.50;;;7.50;99.90;;;;;;4861607;29;20697;-65
2021/09/22 04:17:18;;;;;;;26.90;15.27;;;7.50;99.90;;;;;;4878908;29;20289;-65
2021/09/22 04:19:47;;;;;;;24.13;14.90;;;7.50;99.90;;;;;;4872317;29;20230;-65
2021/09/22 04:22:15;;;;;;;20.10;13.40;;;7.50;99.90;;;;;;4858060;29;20195;-65
2021/09/22 04:24:44;;;;;;;23.40;14.77;;;7.50;99.90;;;;;;4877210;29;20195;-65
2021/09/22 04:27:12;;;;;;;28.00;15.20;;;7.50;99.90;;;;;;4870808;29;20299;-65
2021/09/22 04:29:42;;;;;;;23.50;14.50;;;7.50;99.90;;;;;;4876276;29;20250;-65
2021/09/22 04:32:12;;;;;;;25.37;15.03;;;7.50;99.90;;;;;;4877185;29;20210;-64
2021/09/22 04:34:41;;;;;;;23.43;15.07;;;7.40;99.90;;;;;;4873681;29;20745;-65
2021/09/22 04:37:10;;;;;;;28.90;15.17;;;7.50;99.90;;;;;;4874687;29;20623;-65
2021/09/22 04:39:38;;;;;;;26.10;14.70;;;7.50;99.90;;;;;;4874869;29;20623;-66
2021/09/22 04:42:06;;;;;;;27.23;15.17;;;7.50;99.90;;;;;;4877801;29;20341;-66
2021/09/22 04:44:35;;;;;;;26.00;14.93;;;7.50;99.90;;;;;;4874534;29;20199;-65
2021/09/22 04:47:06;;;;;;;25.57;14.73;;;7.50;99.90;;;;;;4877409;29;20289;-65
2021/09/22 04:49:34;;;;;;;24.67;14.73;;;7.50;99.90;;;;;;4868779;29;20306;-66
2021/09/22 04:52:03;;;;;;;30.37;15.87;;;7.50;99.90;;;;;;4857692;29;20206;-65
2021/09/22 04:54:32;;;;;;;27.60;14.67;;;7.50;99.90;;;;;;4872633;29;20227;-66
2021/09/22 04:57:00;;;;;;;24.73;15.23;;;7.40;99.90;;;;;;4862918;29;20679;-65
2021/09/22 04:59:28;;;;;;;27.50;15.10;;;7.40;99.90;;;;;;4857181;29;20207;-65
2021/09/22 05:01:57;;;;;;;29.57;15.23;;;7.40;99.90;;;;;;4876043;29;20290;-65
2021/09/22 05:04:27;;;;;;;33.13;15.30;;;7.30;99.90;;;;;;4877098;29;20655;-66
2021/09/22 05:06:55;;;;;;;26.47;16.33;;;7.30;99.90;;;;;;4883151;29;20221;-64
2021/09/22 05:09:24;;;;;;;30.70;15.60;;;7.30;99.90;;;;;;4875840;29;20228;-65
2021/09/22 05:11:54;;;;;;;30.27;15.73;;;7.20;99.90;;;;;;4877816;29;20195;-65
2021/09/22 05:14:22;;;;;;;38.13;15.70;;;7.20;99.90;;;;;;4874006;29;20294;-65
2021/09/22 05:16:51;;;;;;;29.33;14.77;;;7.20;99.90;;;;;;4869341;29;20255;-65
2021/09/22 05:19:20;;;;;;;26.53;15.57;;;7.20;99.90;;;;;;4871846;29;20223;-65
2021/09/22 05:21:49;;;;;;;30.40;15.37;;;7.20;99.90;;;;;;4872997;29;20233;-65
2021/09/22 05:24:18;;;;;;;24.70;14.47;;;7.30;99.90;;;;;;4877708;29;20203;-65
2021/09/22 05:26:46;;;;;;;24.00;14.57;;;7.30;99.90;;;;;;4875521;29;20666;-65
2021/09/22 05:29:15;;;;;;;27.93;14.63;;;7.30;99.90;;;;;;4876847;29;20730;-65
2021/09/22 05:31:44;;;;;;;29.13;16.37;;;7.30;99.90;;;;;;4874398;29;20297;-65
2021/09/22 05:34:12;;;;;;;24.87;15.47;;;7.30;99.90;;;;;;4870796;29;20199;-65
2021/09/22 05:36:41;;;;;;;25.67;15.23;;;7.20;99.90;;;;;;4875915;29;20248;-65
2021/09/22 05:39:12;;;;;;;26.87;16.33;;;7.20;99.90;;;;;;4874374;29;20195;-65
2021/09/22 05:41:40;;;;;;;26.53;16.10;;;7.20;99.90;;;;;;4873542;29;20262;-65
2021/09/22 05:44:08;;;;;;;28.50;16.40;;;7.20;99.90;;;;;;4871666;29;20259;-65
2021/09/22 05:46:37;;;;;;;28.97;15.67;;;7.30;99.90;;;;;;4875230;29;20302;-65
2021/09/22 05:49:06;;;;;;;32.63;17.73;;;7.30;99.90;;;;;;4855990;29;20203;-66
2021/09/22 05:51:34;;;;;;;36.80;18.23;;;7.40;99.90;;;;;;4856961;29;20678;-65
2021/09/22 05:54:02;;;;;;;39.43;18.00;;;7.40;99.90;;;;;;4858613;29;20643;-65
2021/09/22 05:56:32;;;;;;;39.13;18.60;;;7.40;99.90;;;;;;4872474;29;20316;-65
2021/09/22 05:59:01;;;;;;;30.20;17.20;;;7.40;99.90;;;;;;4871754;29;20261;-65
2021/09/22 06:01:29;;;;;;;33.90;17.37;;;7.40;99.90;;;;;;4856757;29;20211;-65
2021/09/22 06:03:58;;;;;;;29.90;17.60;;;7.50;99.90;;;;;;4870581;29;20198;-66
2021/09/22 06:06:27;;;;;;;35.03;18.03;;;7.50;99.90;;;;;;4874719;29;20187;-65
2021/09/22 06:08:56;;;;;;;32.13;18.20;;;7.60;99.90;;;;;;4878602;29;20608;-65
2021/09/22 06:11:24;;;;;;;37.27;17.97;;;7.80;99.90;;;;;;4883590;29;20206;-65
2021/09/22 06:13:54;;;;;;;33.57;18.33;;;7.80;99.90;;;;;;4885644;29;20355;-65
2021/09/22 06:16:25;;;;;;;30.37;17.30;;;7.90;99.90;;;;;;4894276;29;20317;-65
2021/09/22 06:18:53;;;;;;;34.47;18.90;;;7.90;99.90;;;;;;4878257;29;20206;-65
2021/09/22 06:21:22;;;;;;;34.30;18.67;;;8.00;99.90;;;;;;4883060;29;20234;-65
2021/09/22 06:23:53;;;;;;;29.50;18.13;;;8.10;99.90;;;;;;4888948;29;20590;-65
2021/09/22 06:26:23;;;;;;;34.53;18.90;;;8.10;99.90;;;;;;4890668;29;20263;-65
2021/09/22 06:28:52;;;;;;;38.13;19.37;;;8.20;99.90;;;;;;4879127;29;20230;-65
2021/09/22 06:31:22;;;;;;;30.67;17.43;;;8.20;99.90;;;;;;4884004;29;20199;-65
2021/09/22 06:33:50;;;;;;;34.73;18.23;;;8.30;99.90;;;;;;4877828;29;20881;-65
2021/09/22 06:36:19;;;;;;;32.87;19.03;;;8.40;99.90;;;;;;4855535;29;20254;-64
2021/09/22 06:38:48;;;;;;;30.70;18.33;;;8.60;99.90;;;;;;4872167;29;20321;-65
2021/09/22 06:41:18;;;;;;;31.77;18.80;;;8.70;99.90;;;;;;4875124;29;20677;-65
2021/09/22 06:43:47;;;;;;;28.07;17.70;;;8.80;99.90;;;;;;4876780;29;20211;-66
2021/09/22 06:46:15;;;;;;;33.77;19.03;;;8.90;99.90;;;;;;4873300;29;20325;-66
2021/09/22 06:48:48;;;;;;;33.27;17.87;;;9.00;99.90;;;;;;4877418;29;20719;-66
2021/09/22 06:51:19;;;;;;;29.73;17.70;;;9.10;99.90;;;;;;4858783;29;20278;-65
2021/09/22 06:53:47;;;;;;;30.53;17.00;;;9.30;99.90;;;;;;4857483;29;20233;-66
2021/09/22 06:56:16;;;;;;;28.27;17.03;;;9.40;99.90;;;;;;4867288;29;20249;-65
2021/09/22 06:58:45;;;;;;;28.00;16.43;;;9.50;99.90;;;;;;4852742;29;20882;-66
2021/09/22 07:01:16;;;;;;;33.60;17.30;;;9.60;99.90;;;;;;4869921;29;20477;-66
2021/09/22 07:03:44;;;;;;;27.23;16.60;;;9.80;99.90;;;;;;4875078;29;20206;-66
2021/09/22 07:06:15;;;;;;;28.00;17.23;;;10.00;99.90;;;;;;4877534;29;20190;-66
2021/09/22 07:08:43;;;;;;;27.73;16.87;;;10.20;99.90;;;;;;4874771;29;20249;-66
2021/09/22 07:11:11;;;;;;;32.33;16.50;;;10.40;99.90;;;;;;4873546;29;20689;-66
2021/09/22 07:13:40;;;;;;;26.77;16.97;;;10.50;99.90;;;;;;4880480;29;20288;-66
2021/09/22 07:16:10;;;;;;;30.30;17.87;;;10.70;99.90;;;;;;4880694;29;20242;-65
2021/09/22 07:18:38;;;;;;;25.43;15.70;;;10.90;99.90;;;;;;4875112;29;20214;-66
2021/09/22 07:21:07;;;;;;;25.83;15.63;;;11.30;99.90;;;;;;4873809;29;20291;-65
2021/09/22 07:23:37;;;;;;;24.67;15.27;;;11.50;99.90;;;;;;4864638;29;20202;-65
2021/09/22 07:26:06;;;;;;;22.67;15.43;;;11.70;99.90;;;;;;4869365;29;20192;-66
2021/09/22 07:28:38;;;;;;;25.20;15.10;;;11.90;99.90;;;;;;4870329;29;20207;-66
2021/09/22 07:31:07;;;;;;;27.67;15.83;;;12.00;99.90;;;;;;4872774;29;20191;-66
2021/09/22 07:33:36;;;;;;;24.07;16.17;;;12.20;99.90;;;;;;4860966;29;20222;-66
2021/09/22 07:36:06;;;;;;;23.30;14.57;;;12.20;99.90;;;;;;4883578;29;20242;-66
2021/09/22 07:38:36;;;;;;;20.83;14.37;;;12.30;99.90;;;;;;4875225;29;20203;-66
2021/09/22 07:41:05;;;;;;;26.93;14.00;;;12.60;99.90;;;;;;4875778;29;20262;-66
2021/09/22 07:43:33;;;;;;;25.57;14.23;;;12.90;99.90;;;;;;4882619;29;20205;-66
2021/09/22 07:46:02;;;;;;;20.97;14.33;;;13.10;99.90;;;;;;4878883;29;20218;-66
2021/09/22 07:48:33;;;;;;;24.10;15.27;;;13.30;99.90;;;;;;4863267;29;20333;-66
2021/09/22 07:51:02;;;;;;;22.63;14.40;;;13.40;99.90;;;;;;4883762;29;20203;-66
2021/09/22 07:53:31;;;;;;;24.33;15.43;;;13.60;99.90;;;;;;4875795;29;20301;-66
2021/09/22 07:56:04;;;;;;;25.57;14.47;;;13.80;99.90;;;;;;4858478;29;20217;-66
2021/09/22 07:58:33;;;;;;;23.20;14.33;;;14.00;99.90;;;;;;4888168;29;20198;-66
2021/09/22 08:01:01;;;;;;;25.03;14.07;;;14.20;99.90;;;;;;4878533;29;20234;-66
2021/09/22 08:03:30;;;;;;;21.77;13.60;;;14.40;99.90;;;;;;4876700;29;20675;-66
2021/09/22 08:05:59;;;;;;;30.83;15.27;;;14.60;99.90;;;;;;4861872;29;20207;-65
2021/09/22 08:08:27;;;;;;;25.37;14.10;;;14.70;99.90;;;;;;4881159;29;20199;-66
2021/09/22 08:10:56;;;;;;;25.60;14.90;;;14.80;99.90;;;;;;4879190;29;20207;-66
2021/09/22 08:13:26;;;;;;;23.90;15.23;;;14.80;99.90;;;;;;4876537;29;20226;-66
2021/09/22 08:15:55;;;;;;;23.33;14.60;;;14.90;99.90;;;;;;4874592;29;20222;-66
2021/09/22 08:18:23;;;;;;;22.33;14.20;;;15.00;99.90;;;;;;4880058;29;20290;-65
2021/09/22 08:20:52;;;;;;;25.33;14.53;;;15.00;99.90;;;;;;4882297;29;20327;-66
2021/09/22 08:23:22;;;;;;;29.47;14.83;;;15.20;99.90;;;;;;4873642;29;20199;-66
2021/09/22 08:25:51;;;;;;;25.53;14.53;;;15.30;99.90;;;;;;4880388;29;20191;-66
2021/09/22 08:28:20;;;;;;;27.90;14.73;;;15.20;99.90;;;;;;4862892;29;20195;-66
2021/09/22 08:30:50;;;;;;;26.83;15.30;;;15.20;99.90;;;;;;4880559;29;20262;-67
2021/09/22 08:33:18;;;;;;;23.77;14.53;;;15.10;99.90;;;;;;4876613;29;20250;-66
2021/09/22 08:35:47;;;;;;;24.00;14.80;;;15.20;99.90;;;;;;4879167;29;20256;-66
2021/09/22 08:38:15;;;;;;;28.37;15.37;;;15.50;99.90;;;;;;4881058;29;20920;-66
2021/09/22 08:40:44;;;;;;;21.77;15.00;;;15.50;99.90;;;;;;4879210;29;20227;-66
2021/09/22 08:43:13;;;;;;;24.67;14.80;;;15.50;99.90;;;;;;4875506;29;20227;-66
2021/09/22 08:45:43;;;;;;;25.53;15.37;;;15.60;99.90;;;;;;4880196;29;20195;-66
2021/09/22 08:48:13;;;;;;;29.30;14.73;;;15.80;99.90;;;;;;4865384;29;20208;-66
2021/09/22 08:50:45;;;;;;;22.87;14.13;;;16.00;99.90;;;;;;4877058;29;20210;-65
2021/09/22 08:53:13;;;;;;;28.10;15.57;;;16.20;99.90;;;;;;4859442;29;20258;-66
2021/09/22 08:55:44;;;;;;;21.67;14.00;;;16.30;99.90;;;;;;4877426;29;20199;-66
2021/09/22 08:58:13;;;;;;;24.63;14.33;;;16.40;99.90;;;;;;4879957;29;20305;-65
2021/09/22 09:00:43;;;;;;;28.50;15.83;;;16.50;99.90;;;;;;4881527;29;20203;-66
2021/09/22 09:03:33;;;;;;;23.77;14.40;;;16.60;99.90;;;;;;4875742;29;20610;-66
2021/09/22 09:06:20;;;;;;;25.30;13.97;;;16.80;99.90;;;;;;4876553;29;20217;-66
2021/09/22 09:08:52;;;;;;;20.97;13.90;;;16.90;99.90;;;;;;4872335;29;20230;-66
2021/09/22 09:11:26;;;;;;;20.90;13.33;;;17.10;99.90;;;;;;4875772;29;20210;-66
2021/09/22 09:13:56;;;;;;;19.47;12.57;;;17.30;99.90;;;;;;4881528;29;20289;-67
2021/09/22 09:16:35;;;;;;;24.53;13.87;;;17.50;99.90;;;;;;4877546;29;20213;-66
2021/09/22 09:19:11;;;;;;;20.10;13.30;;;17.60;99.90;;;;;;4879920;29;20234;-66
2021/09/22 09:21:57;;;;;;;15.77;11.13;;;17.60;99.90;;;;;;4876269;29;20200;-66
2021/09/22 09:24:35;;;;;;;21.73;10.90;;;17.50;99.90;;;;;;4874417;29;20725;-65
2021/09/22 09:27:05;;;;;;;19.33;11.77;;;17.40;99.90;;;;;;4879817;29;20234;-66
2021/09/22 09:29:33;;;;;;;15.37;10.40;;;17.30;99.90;;;;;;4874640;29;20200;-66
2021/09/22 09:32:19;;;;;;;15.00;11.10;;;17.60;99.90;;;;;;4875281;29;20193;-67
2021/09/22 09:35:06;;;;;;;15.53;9.90;;;17.70;99.90;;;;;;4879464;29;20298;-66
2021/09/22 09:37:37;;;;;;;17.67;9.67;;;17.90;99.90;;;;;;4876610;29;20804;-66
2021/09/22 09:40:27;;;;;;;13.50;9.53;;;18.00;99.90;;;;;;4870820;29;20651;-65
2021/09/22 09:42:57;;;;;;;14.97;9.30;;;18.10;99.90;;;;;;4860303;29;20206;-66
2021/09/22 09:45:34;;;;;;;12.37;9.77;;;18.00;99.90;;;;;;4870524;29;20219;-66
2021/09/22 09:48:07;;;;;;;14.20;9.73;;;18.00;99.90;;;;;;4872788;29;20188;-66
2021/09/22 09:50:43;;;;;;;15.10;9.60;;;18.10;99.90;;;;;;4878954;29;20205;-66
2021/09/22 09:53:24;;;;;;;14.10;9.57;;;18.00;99.90;;;;;;4881780;29;20687;-66
2021/09/22 09:55:53;;;;;;;11.73;8.27;;;18.20;99.90;;;;;;4883777;29;20772;-66
2021/09/22 09:58:23;;;;;;;12.17;9.30;;;18.40;99.90;;;;;;4877882;29;20253;-66
2021/09/22 10:00:54;;;;;;;13.87;9.93;;;18.80;99.90;;;;;;4882679;29;20724;-66
2021/09/22 10:03:24;;;;;;;12.13;9.83;;;19.00;99.90;;;;;;4884764;29;20205;-66
2021/09/22 10:05:57;;;;;;;11.20;8.90;;;18.90;99.90;;;;;;4887674;29;20203;-66
2021/09/22 10:08:28;;;;;;;15.03;9.57;;;19.00;99.90;;;;;;4880598;29;20199;-66
2021/09/22 10:11:02;;;;;;;12.13;8.80;;;19.00;99.90;;;;;;4887944;29;20210;-67
2021/09/22 10:13:32;;;;;;;13.47;10.23;;;19.10;99.90;;;;;;4883809;29;20276;-66
2021/09/22 10:16:02;;;;;;;16.67;9.80;;;19.20;99.90;;;;;;4884347;29;20199;-66
2021/09/22 10:18:31;;;;;;;12.23;9.43;;;19.50;99.90;;;;;;4853045;29;20712;-65
2021/09/22 10:21:02;;;;;;;12.73;9.30;;;19.50;99.90;;;;;;4889137;29;20198;-66
2021/09/22 10:23:31;;;;;;;15.07;10.33;;;19.50;99.90;;;;;;4864233;29;20199;-66
2021/09/22 10:25:59;;;;;;;12.97;9.17;;;19.30;99.90;;;;;;4843747;29;20198;-66
2021/09/22 10:28:37;;;;;;;14.67;10.70;;;19.30;99.90;;;;;;4874739;29;20654;-66
2021/09/22 10:31:17;;;;;;;11.30;9.27;;;19.20;99.90;;;;;;4882567;29;20289;-66
2021/09/22 10:33:47;;;;;;;11.50;9.20;;;19.10;99.90;;;;;;4876364;29;20199;-66
2021/09/22 10:36:16;;;;;;;15.03;8.67;;;19.20;99.90;;;;;;4877549;29;20269;-66
2021/09/22 10:38:48;;;;;;;14.53;8.90;;;19.30;99.90;;;;;;4878105;29;20634;-66
2021/09/22 10:41:28;;;;;;;10.17;8.33;;;19.40;99.90;;;;;;4879028;29;20892;-66
2021/09/22 10:43:57;;;;;;;11.30;8.70;;;19.20;99.90;;;;;;4877036;29;20658;-66
2021/09/22 10:46:29;;;;;;;12.37;9.00;;;19.10;99.90;;;;;;4860182;29;20259;-66
2021/09/22 10:49:07;;;;;;;12.77;8.57;;;19.20;99.90;;;;;;4874780;29;20287;-66
2021/09/22 10:51:39;;;;;;;10.90;8.67;;;19.20;99.90;;;;;;4872676;29;20678;-66
2021/09/22 10:54:13;;;;;;;12.27;8.57;;;19.40;99.90;;;;;;4871684;29;20198;-66
2021/09/22 10:56:59;;;;;;;12.77;9.33;;;19.40;99.90;;;;;;4864868;29;20223;-66
2021/09/22 10:59:34;;;;;;;13.30;9.83;;;19.60;99.90;;;;;;4872590;29;20574;-66
2021/09/22 11:02:04;;;;;;;19.87;9.70;;;19.80;99.90;;;;;;4870128;29;20251;-66
2021/09/22 11:04:55;;;;;;;13.73;9.00;;;19.70;99.90;;;;;;4878223;29;20207;-66
2021/09/22 11:07:55;;;;;;;14.70;9.37;;;19.60;99.90;;;;;;4869575;29;20238;-66
2021/09/22 11:10:40;;;;;;;14.90;10.00;;;19.60;99.90;;;;;;4879878;29;20207;-66
2021/09/22 11:13:32;;;;;;;12.17;9.20;;;19.70;99.90;;;;;;4864592;29;20199;-67
2021/09/22 11:16:20;;;;;;;13.97;9.53;;;19.80;99.90;;;;;;4871846;29;20229;-66
2021/09/22 11:18:53;;;;;;;15.70;9.43;;;19.90;99.90;;;;;;4882866;29;20219;-66
2021/09/22 11:21:23;;;;;;;11.90;9.40;;;19.80;99.90;;;;;;4878430;29;20309;-66
2021/09/22 11:23:53;;;;;;;15.93;9.23;;;19.70;99.90;;;;;;4878436;29;20202;-67
2021/09/22 11:26:26;;;;;;;13.20;8.93;;;19.90;99.90;;;;;;4882792;29;20205;-67
2021/09/22 11:28:56;;;;;;;16.37;9.90;;;19.80;99.90;;;;;;4879219;29;20457;-67
2021/09/22 11:31:34;;;;;;;10.23;8.73;;;19.90;99.90;;;;;;4884417;29;20492;-66
2021/09/22 11:34:02;;;;;;;15.37;8.30;;;20.10;99.90;;;;;;4869234;29;20205;-66
2021/09/22 11:36:31;;;;;;;13.47;8.70;;;20.20;99.90;;;;;;4878743;29;20206;-66
2021/09/22 11:39:00;;;;;;;12.03;8.00;;;20.60;99.90;;;;;;4877088;29;20214;-66
2021/09/22 11:41:35;;;;;;;12.33;9.50;;;20.50;99.90;;;;;;4860265;29;20305;-66
2021/09/22 11:44:08;;;;;;;12.03;9.57;;;20.50;99.90;;;;;;4861242;29;20673;-66
2021/09/22 11:46:37;;;;;;;12.33;9.27;;;20.40;99.90;;;;;;4875689;29;20244;-66
2021/09/22 11:49:06;;;;;;;14.63;9.57;;;20.60;99.90;;;;;;4878768;29;20583;-65
2021/09/22 11:51:34;;;;;;;14.90;9.57;;;20.50;99.90;;;;;;4877565;29;20199;-67
2021/09/22 11:54:19;;;;;;;14.83;9.63;;;20.40;99.90;;;;;;4883328;29;20217;-67
2021/09/22 11:57:01;;;;;;;12.57;8.77;;;20.30;99.90;;;;;;4875888;29;20271;-67
2021/09/22 11:59:34;;;;;;;12.20;8.73;;;20.40;99.90;;;;;;4874480;29;20275;-67
2021/09/22 12:02:03;;;;;;;13.97;9.00;;;20.50;99.90;;;;;;4880903;29;20309;-66
2021/09/22 12:04:35;;;;;;;16.30;9.43;;;20.60;99.90;;;;;;4875415;29;20563;-66
2021/09/22 12:07:05;;;;;;;17.77;9.93;;;20.60;99.90;;;;;;4877597;29;20207;-66
2021/09/22 12:09:42;;;;;;;16.47;10.20;;;20.60;99.90;;;;;;4875673;29;20195;-66
2021/09/22 12:12:14;;;;;;;11.97;9.37;;;20.60;99.90;;;;;;4854696;29;20234;-67
2021/09/22 12:14:48;;;;;;;16.73;9.53;;;20.60;99.90;;;;;;4875083;29;20199;-66
2021/09/22 12:17:18;;;;;;;14.60;10.57;;;20.70;99.90;;;;;;4873096;29;20547;-66
2021/09/22 12:19:48;;;;;;;14.83;9.90;;;20.60;99.90;;;;;;4879426;29;20321;-66
2021/09/22 12:22:22;;;;;;;13.03;9.00;;;20.60;99.90;;;;;;4880428;29;20625;-66
2021/09/22 12:24:53;;;;;;;14.83;9.60;;;20.60;99.90;;;;;;4875848;29;20243;-66
2021/09/22 12:27:23;;;;;;;12.70;9.73;;;20.70;99.90;;;;;;4876814;29;20230;-66
2021/09/22 12:29:58;;;;;;;12.57;9.73;;;20.50;99.90;;;;;;4872298;29;20218;-67
2021/09/22 12:32:29;;;;;;;13.03;9.27;;;20.50;99.90;;;;;;4880043;29;20209;-67
2021/09/22 12:34:58;;;;;;;14.30;9.53;;;20.60;99.90;;;;;;4876390;29;20294;-66
2021/09/22 12:37:30;;;;;;;13.97;10.17;;;20.80;99.90;;;;;;4884553;29;20203;-66
2021/09/22 12:40:03;;;;;;;16.00;10.57;;;20.80;99.90;;;;;;4875727;29;20245;-66
2021/09/22 12:42:40;;;;;;;14.70;11.10;;;20.80;99.90;;;;;;4876493;29;20624;-67
2021/09/22 12:45:10;;;;;;;14.30;10.43;;;20.70;99.90;;;;;;4857805;29;20281;-67
2021/09/22 12:47:50;;;;;;;16.23;10.33;;;20.80;99.90;;;;;;4872033;29;20293;-66
2021/09/22 12:50:22;;;;;;;12.53;9.87;;;20.80;99.90;;;;;;4880475;29;20250;-67
2021/09/22 12:52:52;;;;;;;22.03;11.30;;;20.90;99.90;;;;;;4873763;29;20203;-67